sensor_id;sensor_type;location;lat;lon;timestamp;P1;durP1;ratioP1;P2;durP2;ratioP2
7253;SDS011;4060;49.186;9.226;2023-12-20T00:01:50;4.78;;;2.88;;
7253;SDS011;4060;49.186;9.226;2023-12-20T00:04:21;2.92;;;2.70;;
7253;SDS011;4060;49.186;9.226;2023-12-20T00:06:51;2.58;;;2.38;;
7253;SDS011;4060;49.186;9.226;2023-12-20T00:09:20;3.22;;;2.92;;
7253;SDS011;4060;49.186;9.226;2023-12-20T00:11:50;3.45;;;2.47;;
7253;SDS011;4060;49.186;9.226;2023-12-20T00:14:19;3.30;;;3.00;;
7253;SDS011;4060;49.186;9.226;2023-12-20T00:16:48;3.03;;;2.72;;
7253;SDS011;4060;49.186;9.226;2023-12-20T00:19:19;3.08;;;2.78;;
7253;SDS011;4060;49.186;9.226;2023-12-20T00:21:49;2.90;;;2.70;;
7253;SDS011;4060;49.186;9.226;2023-12-20T00:24:18;3.67;;;3.00;;
7253;SDS011;4060;49.186;9.226;2023-12-20T00:26:48;3.03;;;2.78;;
7253;SDS011;4060;49.186;9.226;2023-12-20T00:29:18;2.67;;;2.47;;
7253;SDS011;4060;49.186;9.226;2023-12-20T00:31:47;3.25;;;2.95;;
7253;SDS011;4060;49.186;9.226;2023-12-20T00:34:16;2.97;;;2.67;;
7253;SDS011;4060;49.186;9.226;2023-12-20T00:36:49;3.65;;;2.75;;
7253;SDS011;4060;49.186;9.226;2023-12-20T00:39:18;3.17;;;2.88;;
7253;SDS011;4060;49.186;9.226;2023-12-20T00:41:48;2.92;;;2.72;;
7253;SDS011;4060;49.186;9.226;2023-12-20T00:44:17;3.10;;;2.80;;
7253;SDS011;4060;49.186;9.226;2023-12-20T00:46:46;2.80;;;2.42;;
7253;SDS011;4060;49.186;9.226;2023-12-20T00:49:17;3.10;;;2.80;;
7253;SDS011;4060;49.186;9.226;2023-12-20T00:51:49;2.92;;;2.72;;
7253;SDS011;4060;49.186;9.226;2023-12-20T00:54:18;3.33;;;3.03;;
7253;SDS011;4060;49.186;9.226;2023-12-20T00:56:48;2.72;;;2.53;;
7253;SDS011;4060;49.186;9.226;2023-12-20T00:59:18;2.72;;;2.53;;
7253;SDS011;4060;49.186;9.226;2023-12-20T01:01:47;3.00;;;2.80;;
7253;SDS011;4060;49.186;9.226;2023-12-20T01:04:20;5.10;;;3.15;;
7253;SDS011;4060;49.186;9.226;2023-12-20T01:06:49;3.20;;;2.90;;
7253;SDS011;4060;49.186;9.226;2023-12-20T01:09:19;3.15;;;2.85;;
7253;SDS011;4060;49.186;9.226;2023-12-20T01:11:49;3.30;;;3.00;;
7253;SDS011;4060;49.186;9.226;2023-12-20T01:14:19;3.95;;;3.35;;
7253;SDS011;4060;49.186;9.226;2023-12-20T01:16:49;2.85;;;2.65;;
7253;SDS011;4060;49.186;9.226;2023-12-20T01:19:20;3.20;;;2.90;;
7253;SDS011;4060;49.186;9.226;2023-12-20T01:21:50;3.50;;;3.00;;
7253;SDS011;4060;49.186;9.226;2023-12-20T01:24:20;4.18;;;3.00;;
7253;SDS011;4060;49.186;9.226;2023-12-20T01:26:49;3.10;;;2.80;;
7253;SDS011;4060;49.186;9.226;2023-12-20T01:29:19;3.00;;;2.70;;
7253;SDS011;4060;49.186;9.226;2023-12-20T01:31:48;3.60;;;3.30;;
7253;SDS011;4060;49.186;9.226;2023-12-20T01:34:18;3.25;;;2.95;;
7253;SDS011;4060;49.186;9.226;2023-12-20T01:36:53;3.60;;;3.30;;
7253;SDS011;4060;49.186;9.226;2023-12-20T01:39:23;3.22;;;3.00;;
7253;SDS011;4060;49.186;9.226;2023-12-20T01:41:53;3.45;;;3.15;;
7253;SDS011;4060;49.186;9.226;2023-12-20T01:44:22;3.70;;;3.40;;
7253;SDS011;4060;49.186;9.226;2023-12-20T01:46:53;4.00;;;3.70;;
7253;SDS011;4060;49.186;9.226;2023-12-20T01:49:25;3.42;;;3.13;;
7253;SDS011;4060;49.186;9.226;2023-12-20T01:51:56;3.38;;;3.08;;
7253;SDS011;4060;49.186;9.226;2023-12-20T01:54:26;4.03;;;3.42;;
7253;SDS011;4060;49.186;9.226;2023-12-20T01:56:55;3.65;;;3.00;;
7253;SDS011;4060;49.186;9.226;2023-12-20T01:59:25;3.70;;;3.28;;
7253;SDS011;4060;49.186;9.226;2023-12-20T02:01:57;3.40;;;3.10;;
7253;SDS011;4060;49.186;9.226;2023-12-20T02:04:29;3.00;;;2.78;;
7253;SDS011;4060;49.186;9.226;2023-12-20T02:06:58;3.40;;;3.10;;
7253;SDS011;4060;49.186;9.226;2023-12-20T02:09:28;2.70;;;2.47;;
7253;SDS011;4060;49.186;9.226;2023-12-20T02:11:58;2.80;;;2.60;;
7253;SDS011;4060;49.186;9.226;2023-12-20T02:14:28;3.03;;;2.72;;
7253;SDS011;4060;49.186;9.226;2023-12-20T02:16:57;3.00;;;2.80;;
7253;SDS011;4060;49.186;9.226;2023-12-20T02:19:27;6.95;;;3.20;;
7253;SDS011;4060;49.186;9.226;2023-12-20T02:22:10;2.72;;;2.53;;
7253;SDS011;4060;49.186;9.226;2023-12-20T02:24:40;2.70;;;2.50;;
7253;SDS011;4060;49.186;9.226;2023-12-20T02:27:09;2.75;;;2.55;;
7253;SDS011;4060;49.186;9.226;2023-12-20T02:29:39;2.60;;;2.40;;
7253;SDS011;4060;49.186;9.226;2023-12-20T02:32:14;3.20;;;3.00;;
7253;SDS011;4060;49.186;9.226;2023-12-20T02:34:47;2.53;;;2.33;;
7253;SDS011;4060;49.186;9.226;2023-12-20T02:37:20;3.10;;;2.80;;
7253;SDS011;4060;49.186;9.226;2023-12-20T02:39:50;2.78;;;2.47;;
7253;SDS011;4060;49.186;9.226;2023-12-20T02:42:20;2.88;;;2.60;;
7253;SDS011;4060;49.186;9.226;2023-12-20T02:44:49;2.60;;;2.40;;
7253;SDS011;4060;49.186;9.226;2023-12-20T02:47:18;2.33;;;2.13;;
7253;SDS011;4060;49.186;9.226;2023-12-20T02:49:48;2.35;;;2.15;;
7253;SDS011;4060;49.186;9.226;2023-12-20T02:52:21;2.65;;;2.45;;
7253;SDS011;4060;49.186;9.226;2023-12-20T02:54:51;2.50;;;2.30;;
7253;SDS011;4060;49.186;9.226;2023-12-20T02:57:20;2.40;;;2.20;;
7253;SDS011;4060;49.186;9.226;2023-12-20T02:59:50;2.35;;;2.15;;
7253;SDS011;4060;49.186;9.226;2023-12-20T03:02:19;2.10;;;1.90;;
7253;SDS011;4060;49.186;9.226;2023-12-20T03:04:49;1.85;;;1.75;;
7253;SDS011;4060;49.186;9.226;2023-12-20T03:07:20;2.25;;;2.15;;
7253;SDS011;4060;49.186;9.226;2023-12-20T03:09:50;2.20;;;1.70;;
7253;SDS011;4060;49.186;9.226;2023-12-20T03:12:19;1.90;;;1.80;;
7253;SDS011;4060;49.186;9.226;2023-12-20T03:14:49;2.20;;;1.98;;
7253;SDS011;4060;49.186;9.226;2023-12-20T03:17:18;2.10;;;1.90;;
7253;SDS011;4060;49.186;9.226;2023-12-20T03:19:48;1.92;;;1.80;;
7253;SDS011;4060;49.186;9.226;2023-12-20T03:22:18;1.88;;;1.77;;
7253;SDS011;4060;49.186;9.226;2023-12-20T03:24:49;1.77;;;1.63;;
7253;SDS011;4060;49.186;9.226;2023-12-20T03:27:19;2.15;;;2.00;;
7253;SDS011;4060;49.186;9.226;2023-12-20T03:29:49;1.80;;;1.70;;
7253;SDS011;4060;49.186;9.226;2023-12-20T03:32:19;1.70;;;1.60;;
7253;SDS011;4060;49.186;9.226;2023-12-20T03:34:48;2.13;;;1.92;;
7253;SDS011;4060;49.186;9.226;2023-12-20T03:37:17;1.67;;;1.58;;
7253;SDS011;4060;49.186;9.226;2023-12-20T03:39:49;1.80;;;1.70;;
7253;SDS011;4060;49.186;9.226;2023-12-20T03:42:19;2.03;;;1.83;;
7253;SDS011;4060;49.186;9.226;2023-12-20T03:44:48;1.98;;;1.88;;
7253;SDS011;4060;49.186;9.226;2023-12-20T03:47:18;1.70;;;1.60;;
7253;SDS011;4060;49.186;9.226;2023-12-20T03:49:47;1.55;;;1.45;;
7253;SDS011;4060;49.186;9.226;2023-12-20T03:52:17;1.70;;;1.60;;
7253;SDS011;4060;49.186;9.226;2023-12-20T03:54:54;1.77;;;1.67;;
7253;SDS011;4060;49.186;9.226;2023-12-20T03:57:29;1.63;;;1.52;;
7253;SDS011;4060;49.186;9.226;2023-12-20T03:59:59;1.75;;;1.50;;
7253;SDS011;4060;49.186;9.226;2023-12-20T04:02:28;1.65;;;1.55;;
7253;SDS011;4060;49.186;9.226;2023-12-20T04:04:57;1.88;;;1.77;;
7253;SDS011;4060;49.186;9.226;2023-12-20T04:07:27;2.20;;;1.85;;
7253;SDS011;4060;49.186;9.226;2023-12-20T04:09:59;1.70;;;1.60;;
7253;SDS011;4060;49.186;9.226;2023-12-20T04:12:30;1.95;;;1.85;;
7253;SDS011;4060;49.186;9.226;2023-12-20T04:14:59;1.88;;;1.77;;
7253;SDS011;4060;49.186;9.226;2023-12-20T04:17:35;1.95;;;1.85;;
7253;SDS011;4060;49.186;9.226;2023-12-20T04:20:05;2.28;;;1.88;;
7253;SDS011;4060;49.186;9.226;2023-12-20T04:22:35;1.98;;;1.83;;
7253;SDS011;4060;49.186;9.226;2023-12-20T04:25:09;1.73;;;1.63;;
7253;SDS011;4060;49.186;9.226;2023-12-20T04:27:38;2.00;;;1.50;;
7253;SDS011;4060;49.186;9.226;2023-12-20T04:30:07;2.08;;;1.70;;
7253;SDS011;4060;49.186;9.226;2023-12-20T04:32:37;1.80;;;1.55;;
7253;SDS011;4060;49.186;9.226;2023-12-20T04:35:07;1.80;;;1.70;;
7253;SDS011;4060;49.186;9.226;2023-12-20T04:37:37;2.17;;;1.90;;
7253;SDS011;4060;49.186;9.226;2023-12-20T04:40:09;1.67;;;1.58;;
7253;SDS011;4060;49.186;9.226;2023-12-20T04:42:39;1.45;;;1.35;;
7253;SDS011;4060;49.186;9.226;2023-12-20T04:45:09;1.80;;;1.70;;
7253;SDS011;4060;49.186;9.226;2023-12-20T04:47:41;2.70;;;2.10;;
7253;SDS011;4060;49.186;9.226;2023-12-20T04:50:13;1.95;;;1.85;;
7253;SDS011;4060;49.186;9.226;2023-12-20T04:52:42;1.95;;;1.85;;
7253;SDS011;4060;49.186;9.226;2023-12-20T04:55:13;2.78;;;1.88;;
7253;SDS011;4060;49.186;9.226;2023-12-20T04:57:42;2.20;;;2.00;;
7253;SDS011;4060;49.186;9.226;2023-12-20T05:00:12;1.75;;;1.65;;
7253;SDS011;4060;49.186;9.226;2023-12-20T05:02:43;2.17;;;1.98;;
7253;SDS011;4060;49.186;9.226;2023-12-20T05:05:12;1.85;;;1.75;;
7253;SDS011;4060;49.186;9.226;2023-12-20T05:07:44;2.10;;;2.00;;
7253;SDS011;4060;49.186;9.226;2023-12-20T05:10:15;1.60;;;1.50;;
7253;SDS011;4060;49.186;9.226;2023-12-20T05:12:44;1.77;;;1.67;;
7253;SDS011;4060;49.186;9.226;2023-12-20T05:15:14;1.80;;;1.70;;
7253;SDS011;4060;49.186;9.226;2023-12-20T05:17:43;2.40;;;2.20;;
7253;SDS011;4060;49.186;9.226;2023-12-20T05:20:14;2.00;;;1.90;;
7253;SDS011;4060;49.186;9.226;2023-12-20T05:22:43;1.95;;;1.75;;
7253;SDS011;4060;49.186;9.226;2023-12-20T05:25:15;2.42;;;2.05;;
7253;SDS011;4060;49.186;9.226;2023-12-20T05:27:45;1.95;;;1.80;;
7253;SDS011;4060;49.186;9.226;2023-12-20T05:30:14;2.10;;;1.88;;
7253;SDS011;4060;49.186;9.226;2023-12-20T05:32:44;2.10;;;1.92;;
7253;SDS011;4060;49.186;9.226;2023-12-20T05:35:13;2.10;;;2.00;;
7253;SDS011;4060;49.186;9.226;2023-12-20T05:37:43;2.20;;;2.10;;
7253;SDS011;4060;49.186;9.226;2023-12-20T05:40:12;2.10;;;1.90;;
7253;SDS011;4060;49.186;9.226;2023-12-20T05:42:44;1.92;;;1.83;;
7253;SDS011;4060;49.186;9.226;2023-12-20T05:45:14;2.30;;;2.10;;
7253;SDS011;4060;49.186;9.226;2023-12-20T05:47:43;2.20;;;2.10;;
7253;SDS011;4060;49.186;9.226;2023-12-20T05:50:13;1.98;;;1.88;;
7253;SDS011;4060;49.186;9.226;2023-12-20T05:52:42;2.08;;;1.98;;
7253;SDS011;4060;49.186;9.226;2023-12-20T05:55:11;2.30;;;2.10;;
7253;SDS011;4060;49.186;9.226;2023-12-20T05:57:43;2.20;;;2.10;;
7253;SDS011;4060;49.186;9.226;2023-12-20T06:00:13;2.20;;;2.10;;
7253;SDS011;4060;49.186;9.226;2023-12-20T06:02:43;1.90;;;1.80;;
7253;SDS011;4060;49.186;9.226;2023-12-20T06:05:13;2.25;;;2.15;;
7253;SDS011;4060;49.186;9.226;2023-12-20T06:07:43;2.10;;;1.90;;
7253;SDS011;4060;49.186;9.226;2023-12-20T06:10:14;2.17;;;2.08;;
7253;SDS011;4060;49.186;9.226;2023-12-20T06:12:45;2.15;;;2.05;;
7253;SDS011;4060;49.186;9.226;2023-12-20T06:15:16;1.88;;;1.77;;
7253;SDS011;4060;49.186;9.226;2023-12-20T06:17:45;2.60;;;2.40;;
7253;SDS011;4060;49.186;9.226;2023-12-20T06:20:15;2.10;;;2.00;;
7253;SDS011;4060;49.186;9.226;2023-12-20T06:22:44;2.00;;;1.90;;
7253;SDS011;4060;49.186;9.226;2023-12-20T06:25:14;1.90;;;1.80;;
7253;SDS011;4060;49.186;9.226;2023-12-20T06:27:46;2.13;;;2.03;;
7253;SDS011;4060;49.186;9.226;2023-12-20T06:30:15;2.42;;;2.25;;
7253;SDS011;4060;49.186;9.226;2023-12-20T06:32:45;2.22;;;2.10;;
7253;SDS011;4060;49.186;9.226;2023-12-20T06:35:14;2.10;;;2.00;;
7253;SDS011;4060;49.186;9.226;2023-12-20T06:37:44;2.00;;;1.90;;
7253;SDS011;4060;49.186;9.226;2023-12-20T06:40:13;2.90;;;2.70;;
7253;SDS011;4060;49.186;9.226;2023-12-20T06:42:47;3.47;;;2.35;;
7253;SDS011;4060;49.186;9.226;2023-12-20T06:45:16;2.45;;;2.25;;
7253;SDS011;4060;49.186;9.226;2023-12-20T06:47:46;2.60;;;2.40;;
7253;SDS011;4060;49.186;9.226;2023-12-20T06:50:15;2.45;;;2.35;;
7253;SDS011;4060;49.186;9.226;2023-12-20T06:52:45;2.58;;;2.38;;
7253;SDS011;4060;49.186;9.226;2023-12-20T06:55:14;3.00;;;2.67;;
7253;SDS011;4060;49.186;9.226;2023-12-20T06:57:46;2.72;;;2.53;;
7253;SDS011;4060;49.186;9.226;2023-12-20T07:00:16;2.63;;;2.42;;
7253;SDS011;4060;49.186;9.226;2023-12-20T07:02:46;3.03;;;2.72;;
7253;SDS011;4060;49.186;9.226;2023-12-20T07:05:16;2.70;;;2.50;;
7253;SDS011;4060;49.186;9.226;2023-12-20T07:07:46;3.08;;;2.88;;
7253;SDS011;4060;49.186;9.226;2023-12-20T07:10:15;3.00;;;2.80;;
7253;SDS011;4060;49.186;9.226;2023-12-20T07:12:47;3.15;;;2.80;;
7253;SDS011;4060;49.186;9.226;2023-12-20T07:15:17;3.00;;;2.80;;
7253;SDS011;4060;49.186;9.226;2023-12-20T07:17:46;3.10;;;2.85;;
7253;SDS011;4060;49.186;9.226;2023-12-20T07:20:16;3.88;;;2.78;;
7253;SDS011;4060;49.186;9.226;2023-12-20T07:22:45;3.53;;;3.10;;
7253;SDS011;4060;49.186;9.226;2023-12-20T07:25:14;2.80;;;2.60;;
7253;SDS011;4060;49.186;9.226;2023-12-20T07:27:44;3.20;;;2.92;;
7253;SDS011;4060;49.186;9.226;2023-12-20T07:30:15;2.80;;;2.60;;
7253;SDS011;4060;49.186;9.226;2023-12-20T07:32:45;3.03;;;2.83;;
7253;SDS011;4060;49.186;9.226;2023-12-20T07:35:15;3.13;;;2.92;;
7253;SDS011;4060;49.186;9.226;2023-12-20T07:37:45;3.05;;;2.85;;
7253;SDS011;4060;49.186;9.226;2023-12-20T07:40:15;3.72;;;3.42;;
7253;SDS011;4060;49.186;9.226;2023-12-20T07:42:44;3.67;;;3.10;;
7253;SDS011;4060;49.186;9.226;2023-12-20T07:45:16;2.97;;;2.78;;
7253;SDS011;4060;49.186;9.226;2023-12-20T07:47:45;3.10;;;2.90;;
7253;SDS011;4060;49.186;9.226;2023-12-20T07:50:15;3.00;;;2.80;;
7253;SDS011;4060;49.186;9.226;2023-12-20T07:52:46;3.00;;;2.80;;
7253;SDS011;4060;49.186;9.226;2023-12-20T07:55:15;3.25;;;3.05;;
7253;SDS011;4060;49.186;9.226;2023-12-20T07:57:45;2.63;;;2.42;;
7253;SDS011;4060;49.186;9.226;2023-12-20T08:00:16;3.20;;;3.00;;
7253;SDS011;4060;49.186;9.226;2023-12-20T08:02:46;4.22;;;3.25;;
7253;SDS011;4060;49.186;9.226;2023-12-20T08:05:16;2.83;;;2.63;;
7253;SDS011;4060;49.186;9.226;2023-12-20T08:07:46;3.30;;;3.00;;
7253;SDS011;4060;49.186;9.226;2023-12-20T08:10:15;3.25;;;3.00;;
7253;SDS011;4060;49.186;9.226;2023-12-20T08:12:47;2.85;;;2.65;;
7253;SDS011;4060;49.186;9.226;2023-12-20T08:15:17;3.25;;;3.03;;
7253;SDS011;4060;49.186;9.226;2023-12-20T08:17:46;4.00;;;3.63;;
7253;SDS011;4060;49.186;9.226;2023-12-20T08:20:17;3.00;;;2.80;;
7253;SDS011;4060;49.186;9.226;2023-12-20T08:22:46;3.58;;;3.28;;
7253;SDS011;4060;49.186;9.226;2023-12-20T08:25:29;2.92;;;2.72;;
7253;SDS011;4060;49.186;9.226;2023-12-20T08:28:01;3.55;;;3.20;;
7253;SDS011;4060;49.186;9.226;2023-12-20T08:30:30;3.95;;;3.65;;
7253;SDS011;4060;49.186;9.226;2023-12-20T08:33:00;4.07;;;3.78;;
7253;SDS011;4060;49.186;9.226;2023-12-20T08:35:30;4.55;;;3.47;;
7253;SDS011;4060;49.186;9.226;2023-12-20T08:38:00;3.65;;;3.28;;
7253;SDS011;4060;49.186;9.226;2023-12-20T08:40:30;3.17;;;2.97;;
7253;SDS011;4060;49.186;9.226;2023-12-20T08:43:01;4.32;;;3.92;;
7253;SDS011;4060;49.186;9.226;2023-12-20T08:45:31;3.45;;;3.15;;
7253;SDS011;4060;49.186;9.226;2023-12-20T08:48:01;3.60;;;3.25;;
7253;SDS011;4060;49.186;9.226;2023-12-20T08:50:31;3.70;;;3.40;;
7253;SDS011;4060;49.186;9.226;2023-12-20T08:53:02;3.40;;;2.97;;
7253;SDS011;4060;49.186;9.226;2023-12-20T08:55:31;3.80;;;3.22;;
7253;SDS011;4060;49.186;9.226;2023-12-20T08:58:02;3.10;;;2.90;;
7253;SDS011;4060;49.186;9.226;2023-12-20T09:00:34;3.83;;;3.45;;
7253;SDS011;4060;49.186;9.226;2023-12-20T09:03:04;3.85;;;3.55;;
7253;SDS011;4060;49.186;9.226;2023-12-20T09:05:34;4.05;;;3.75;;
7253;SDS011;4060;49.186;9.226;2023-12-20T09:08:04;4.15;;;3.60;;
7253;SDS011;4060;49.186;9.226;2023-12-20T09:10:36;3.47;;;3.17;;
7253;SDS011;4060;49.186;9.226;2023-12-20T09:13:08;4.40;;;3.58;;
7253;SDS011;4060;49.186;9.226;2023-12-20T09:15:38;3.70;;;3.40;;
7253;SDS011;4060;49.186;9.226;2023-12-20T09:18:09;4.80;;;3.78;;
7253;SDS011;4060;49.186;9.226;2023-12-20T09:20:38;4.30;;;3.28;;
7253;SDS011;4060;49.186;9.226;2023-12-20T09:23:10;3.78;;;3.47;;
7253;SDS011;4060;49.186;9.226;2023-12-20T09:25:40;3.25;;;3.03;;
7253;SDS011;4060;49.186;9.226;2023-12-20T09:28:11;3.60;;;3.30;;
7253;SDS011;4060;49.186;9.226;2023-12-20T09:30:41;4.80;;;3.50;;
7253;SDS011;4060;49.186;9.226;2023-12-20T09:33:12;4.18;;;3.88;;
7253;SDS011;4060;49.186;9.226;2023-12-20T09:35:43;5.78;;;5.28;;
7253;SDS011;4060;49.186;9.226;2023-12-20T09:38:12;4.57;;;3.95;;
7253;SDS011;4060;49.186;9.226;2023-12-20T09:40:48;4.13;;;3.75;;
7253;SDS011;4060;49.186;9.226;2023-12-20T09:43:22;4.55;;;4.13;;
7253;SDS011;4060;49.186;9.226;2023-12-20T09:45:54;4.20;;;3.75;;
7253;SDS011;4060;49.186;9.226;2023-12-20T09:48:29;3.83;;;3.50;;
7253;SDS011;4060;49.186;9.226;2023-12-20T09:50:59;4.53;;;4.13;;
7253;SDS011;4060;49.186;9.226;2023-12-20T09:53:29;5.65;;;3.67;;
7253;SDS011;4060;49.186;9.226;2023-12-20T09:56:05;3.67;;;3.38;;
7253;SDS011;4060;49.186;9.226;2023-12-20T09:58:38;3.60;;;3.28;;
7253;SDS011;4060;49.186;9.226;2023-12-20T10:01:08;3.92;;;3.50;;
7253;SDS011;4060;49.186;9.226;2023-12-20T10:03:39;3.60;;;2.83;;
7253;SDS011;4060;49.186;9.226;2023-12-20T10:06:09;3.65;;;3.00;;
7253;SDS011;4060;49.186;9.226;2023-12-20T10:08:39;3.08;;;2.80;;
7253;SDS011;4060;49.186;9.226;2023-12-20T10:11:09;3.47;;;3.17;;
7253;SDS011;4060;49.186;9.226;2023-12-20T10:13:41;5.50;;;3.22;;
7253;SDS011;4060;49.186;9.226;2023-12-20T10:16:10;2.97;;;2.67;;
7253;SDS011;4060;49.186;9.226;2023-12-20T10:18:40;3.67;;;2.63;;
7253;SDS011;4060;49.186;9.226;2023-12-20T10:21:12;3.00;;;2.70;;
7253;SDS011;4060;49.186;9.226;2023-12-20T10:23:42;2.63;;;2.05;;
7253;SDS011;4060;49.186;9.226;2023-12-20T10:26:13;4.97;;;2.50;;
7253;SDS011;4060;49.186;9.226;2023-12-20T10:28:52;5.68;;;2.47;;
7253;SDS011;4060;49.186;9.226;2023-12-20T10:31:27;3.63;;;2.95;;
7253;SDS011;4060;49.186;9.226;2023-12-20T10:33:59;3.83;;;2.50;;
7253;SDS011;4060;49.186;9.226;2023-12-20T10:36:30;3.63;;;2.63;;
7253;SDS011;4060;49.186;9.226;2023-12-20T10:39:03;4.03;;;2.17;;
7253;SDS011;4060;49.186;9.226;2023-12-20T10:41:37;3.58;;;2.70;;
7253;SDS011;4060;49.186;9.226;2023-12-20T10:44:10;3.45;;;2.05;;
7253;SDS011;4060;49.186;9.226;2023-12-20T10:46:40;4.72;;;2.38;;
7253;SDS011;4060;49.186;9.226;2023-12-20T10:49:18;3.17;;;2.30;;
7253;SDS011;4060;49.186;9.226;2023-12-20T10:51:47;3.70;;;2.28;;
7253;SDS011;4060;49.186;9.226;2023-12-20T10:54:19;3.45;;;2.30;;
7253;SDS011;4060;49.186;9.226;2023-12-20T10:56:50;4.78;;;2.50;;
7253;SDS011;4060;49.186;9.226;2023-12-20T10:59:23;4.95;;;2.72;;
7253;SDS011;4060;49.186;9.226;2023-12-20T11:01:58;5.45;;;2.72;;
7253;SDS011;4060;49.186;9.226;2023-12-20T11:04:42;4.82;;;3.00;;
7253;SDS011;4060;49.186;9.226;2023-12-20T11:07:21;3.15;;;2.20;;
7253;SDS011;4060;49.186;9.226;2023-12-20T11:09:57;3.25;;;2.60;;
7253;SDS011;4060;49.186;9.226;2023-12-20T11:12:34;3.78;;;2.50;;
7253;SDS011;4060;49.186;9.226;2023-12-20T11:15:10;3.67;;;2.17;;
7253;SDS011;4060;49.186;9.226;2023-12-20T11:17:44;3.13;;;2.10;;
7253;SDS011;4060;49.186;9.226;2023-12-20T11:20:14;3.90;;;2.50;;
7253;SDS011;4060;49.186;9.226;2023-12-20T11:22:52;8.70;;;2.63;;
7253;SDS011;4060;49.186;9.226;2023-12-20T11:25:22;3.13;;;2.40;;
7253;SDS011;4060;49.186;9.226;2023-12-20T11:28:07;4.15;;;2.72;;
7253;SDS011;4060;49.186;9.226;2023-12-20T11:30:45;3.25;;;2.50;;
7253;SDS011;4060;49.186;9.226;2023-12-20T11:33:22;3.13;;;2.50;;
7253;SDS011;4060;49.186;9.226;2023-12-20T11:35:55;3.05;;;2.50;;
7253;SDS011;4060;49.186;9.226;2023-12-20T11:38:26;5.32;;;2.90;;
7253;SDS011;4060;49.186;9.226;2023-12-20T11:40:57;3.25;;;2.15;;
7253;SDS011;4060;49.186;9.226;2023-12-20T11:43:30;3.85;;;2.40;;
7253;SDS011;4060;49.186;9.226;2023-12-20T11:46:05;2.50;;;2.30;;
7253;SDS011;4060;49.186;9.226;2023-12-20T11:48:37;7.38;;;3.00;;
7253;SDS011;4060;49.186;9.226;2023-12-20T11:51:10;6.10;;;2.05;;
7253;SDS011;4060;49.186;9.226;2023-12-20T11:53:42;3.92;;;2.65;;
7253;SDS011;4060;49.186;9.226;2023-12-20T11:56:12;4.28;;;2.63;;
7253;SDS011;4060;49.186;9.226;2023-12-20T11:58:41;5.57;;;2.30;;
7253;SDS011;4060;49.186;9.226;2023-12-20T12:01:13;3.72;;;2.53;;
7253;SDS011;4060;49.186;9.226;2023-12-20T12:03:42;5.38;;;2.67;;
7253;SDS011;4060;49.186;9.226;2023-12-20T12:06:12;2.40;;;2.20;;
7253;SDS011;4060;49.186;9.226;2023-12-20T12:08:41;4.97;;;2.20;;
7253;SDS011;4060;49.186;9.226;2023-12-20T12:11:11;3.88;;;2.50;;
7253;SDS011;4060;49.186;9.226;2023-12-20T12:13:40;4.05;;;2.30;;
7253;SDS011;4060;49.186;9.226;2023-12-20T12:16:10;3.42;;;2.60;;
7253;SDS011;4060;49.186;9.226;2023-12-20T12:18:41;4.60;;;2.33;;
7253;SDS011;4060;49.186;9.226;2023-12-20T12:21:10;2.75;;;2.40;;
7253;SDS011;4060;49.186;9.226;2023-12-20T12:23:48;4.22;;;2.20;;
7253;SDS011;4060;49.186;9.226;2023-12-20T12:26:19;8.02;;;2.78;;
7253;SDS011;4060;49.186;9.226;2023-12-20T12:28:48;6.93;;;2.65;;
7253;SDS011;4060;49.186;9.226;2023-12-20T12:31:20;4.97;;;2.55;;
7253;SDS011;4060;49.186;9.226;2023-12-20T12:33:51;7.13;;;2.78;;
7253;SDS011;4060;49.186;9.226;2023-12-20T12:36:21;3.00;;;2.38;;
7253;SDS011;4060;49.186;9.226;2023-12-20T12:38:51;5.53;;;2.97;;
7253;SDS011;4060;49.186;9.226;2023-12-20T12:41:21;3.53;;;2.50;;
7253;SDS011;4060;49.186;9.226;2023-12-20T12:43:51;5.20;;;2.70;;
7253;SDS011;4060;49.186;9.226;2023-12-20T12:46:20;3.47;;;2.70;;
7253;SDS011;4060;49.186;9.226;2023-12-20T12:48:51;5.50;;;2.45;;
7253;SDS011;4060;49.186;9.226;2023-12-20T12:51:22;4.88;;;2.53;;
7253;SDS011;4060;49.186;9.226;2023-12-20T12:53:51;3.67;;;2.60;;
7253;SDS011;4060;49.186;9.226;2023-12-20T12:56:21;4.03;;;2.70;;
7253;SDS011;4060;49.186;9.226;2023-12-20T12:58:51;3.50;;;2.63;;
7253;SDS011;4060;49.186;9.226;2023-12-20T13:01:20;6.63;;;2.70;;
7253;SDS011;4060;49.186;9.226;2023-12-20T13:03:52;6.55;;;3.22;;
7253;SDS011;4060;49.186;9.226;2023-12-20T13:06:21;4.25;;;3.08;;
7253;SDS011;4060;49.186;9.226;2023-12-20T13:08:51;5.07;;;2.75;;
7253;SDS011;4060;49.186;9.226;2023-12-20T13:11:21;4.13;;;2.97;;
7253;SDS011;4060;49.186;9.226;2023-12-20T13:13:51;3.85;;;2.80;;
7253;SDS011;4060;49.186;9.226;2023-12-20T13:16:21;3.95;;;3.03;;
7253;SDS011;4060;49.186;9.226;2023-12-20T13:18:52;4.38;;;2.85;;
7253;SDS011;4060;49.186;9.226;2023-12-20T13:21:22;4.03;;;2.70;;
7253;SDS011;4060;49.186;9.226;2023-12-20T13:23:51;4.38;;;2.80;;
7253;SDS011;4060;49.186;9.226;2023-12-20T13:26:21;4.57;;;2.58;;
7253;SDS011;4060;49.186;9.226;2023-12-20T13:28:50;5.47;;;2.90;;
7253;SDS011;4060;49.186;9.226;2023-12-20T13:31:20;3.25;;;2.80;;
7253;SDS011;4060;49.186;9.226;2023-12-20T13:33:50;6.93;;;2.90;;
7253;SDS011;4060;49.186;9.226;2023-12-20T13:36:21;4.88;;;2.95;;
7253;SDS011;4060;49.186;9.226;2023-12-20T13:38:50;4.60;;;3.08;;
7253;SDS011;4060;49.186;9.226;2023-12-20T13:41:20;6.00;;;2.90;;
7253;SDS011;4060;49.186;9.226;2023-12-20T13:43:50;4.35;;;2.75;;
7253;SDS011;4060;49.186;9.226;2023-12-20T13:46:20;4.10;;;2.58;;
7253;SDS011;4060;49.186;9.226;2023-12-20T13:48:53;3.13;;;2.65;;
7253;SDS011;4060;49.186;9.226;2023-12-20T13:51:22;6.80;;;2.70;;
7253;SDS011;4060;49.186;9.226;2023-12-20T13:53:52;6.60;;;2.97;;
7253;SDS011;4060;49.186;9.226;2023-12-20T13:56:21;4.43;;;2.70;;
7253;SDS011;4060;49.186;9.226;2023-12-20T13:58:51;3.53;;;2.75;;
7253;SDS011;4060;49.186;9.226;2023-12-20T14:01:20;5.40;;;2.95;;
7253;SDS011;4060;49.186;9.226;2023-12-20T14:03:53;6.05;;;2.67;;
7253;SDS011;4060;49.186;9.226;2023-12-20T14:06:23;5.65;;;3.25;;
7253;SDS011;4060;49.186;9.226;2023-12-20T14:08:52;8.05;;;3.00;;
7253;SDS011;4060;49.186;9.226;2023-12-20T14:11:22;4.25;;;2.85;;
7253;SDS011;4060;49.186;9.226;2023-12-20T14:13:51;4.13;;;2.75;;
7253;SDS011;4060;49.186;9.226;2023-12-20T14:16:25;6.57;;;3.00;;
7253;SDS011;4060;49.186;9.226;2023-12-20T14:18:58;5.57;;;2.75;;
7253;SDS011;4060;49.186;9.226;2023-12-20T14:21:29;6.45;;;3.33;;
7253;SDS011;4060;49.186;9.226;2023-12-20T14:23:59;3.50;;;2.67;;
7253;SDS011;4060;49.186;9.226;2023-12-20T14:26:30;4.05;;;2.80;;
7253;SDS011;4060;49.186;9.226;2023-12-20T14:28:59;6.05;;;2.60;;
7253;SDS011;4060;49.186;9.226;2023-12-20T14:31:30;6.68;;;2.90;;
7253;SDS011;4060;49.186;9.226;2023-12-20T14:34:01;3.85;;;2.60;;
7253;SDS011;4060;49.186;9.226;2023-12-20T14:36:31;6.75;;;2.90;;
7253;SDS011;4060;49.186;9.226;2023-12-20T14:39:01;6.00;;;3.25;;
7253;SDS011;4060;49.186;9.226;2023-12-20T14:41:30;6.15;;;3.05;;
7253;SDS011;4060;49.186;9.226;2023-12-20T14:44:00;3.30;;;2.97;;
7253;SDS011;4060;49.186;9.226;2023-12-20T14:46:31;8.05;;;3.00;;
7253;SDS011;4060;49.186;9.226;2023-12-20T14:49:04;3.72;;;2.92;;
7253;SDS011;4060;49.186;9.226;2023-12-20T14:51:34;3.17;;;2.55;;
7253;SDS011;4060;49.186;9.226;2023-12-20T14:54:03;7.45;;;3.50;;
7253;SDS011;4060;49.186;9.226;2023-12-20T14:56:35;5.30;;;2.88;;
7253;SDS011;4060;49.186;9.226;2023-12-20T14:59:04;5.03;;;3.40;;
7253;SDS011;4060;49.186;9.226;2023-12-20T15:01:34;6.18;;;2.70;;
7253;SDS011;4060;49.186;9.226;2023-12-20T15:04:06;5.68;;;2.85;;
7253;SDS011;4060;49.186;9.226;2023-12-20T15:06:36;4.53;;;2.72;;
7253;SDS011;4060;49.186;9.226;2023-12-20T15:09:06;3.67;;;2.40;;
7253;SDS011;4060;49.186;9.226;2023-12-20T15:11:35;3.80;;;2.72;;
7253;SDS011;4060;49.186;9.226;2023-12-20T15:14:05;3.97;;;2.70;;
7253;SDS011;4060;49.186;9.226;2023-12-20T15:16:35;7.47;;;2.78;;
7253;SDS011;4060;49.186;9.226;2023-12-20T15:19:06;4.22;;;2.65;;
7253;SDS011;4060;49.186;9.226;2023-12-20T15:21:35;6.63;;;3.17;;
7253;SDS011;4060;49.186;9.226;2023-12-20T15:24:08;5.18;;;3.03;;
7253;SDS011;4060;49.186;9.226;2023-12-20T15:26:43;4.80;;;2.58;;
7253;SDS011;4060;49.186;9.226;2023-12-20T15:29:12;7.05;;;3.05;;
7253;SDS011;4060;49.186;9.226;2023-12-20T15:31:42;4.13;;;2.47;;
7253;SDS011;4060;49.186;9.226;2023-12-20T15:34:14;6.30;;;3.10;;
7253;SDS011;4060;49.186;9.226;2023-12-20T15:36:44;4.05;;;2.78;;